createdAt,value
2023-03-12T00:01:41.736Z,22.70
2023-03-12T00:04:08.339Z,24.42
2023-03-12T00:06:34.941Z,24.45
2023-03-12T00:09:02.064Z,29.48
2023-03-12T00:11:29.202Z,22.83
2023-03-12T00:13:57.457Z,21.90
2023-03-12T00:16:24.887Z,24.50
2023-03-12T00:18:53.950Z,28.35
2023-03-12T00:21:21.926Z,20.35
2023-03-12T00:23:49.426Z,18.83
2023-03-12T00:26:17.023Z,19.70
2023-03-12T00:28:43.818Z,26.38
2023-03-12T00:31:20.231Z,22.25
2023-03-12T00:33:49.416Z,21.75
2023-03-12T00:36:18.044Z,26.77
2023-03-12T00:38:44.678Z,22.10
2023-03-12T00:41:11.458Z,19.80
2023-03-12T00:43:38.566Z,18.20
2023-03-12T00:46:05.221Z,19.23
2023-03-12T00:48:31.973Z,24.25
2023-03-12T00:50:58.606Z,23.27
2023-03-12T00:53:25.347Z,18.45
2023-03-12T00:55:51.876Z,26.42
2023-03-12T00:58:18.527Z,20.95
2023-03-12T01:00:45.263Z,18.45
2023-03-12T01:03:11.872Z,24.85
2023-03-12T01:05:40.854Z,23.00
2023-03-12T01:08:08.687Z,22.55
2023-03-12T01:10:36.382Z,22.85
2023-03-12T01:13:03.543Z,25.52
2023-03-12T01:15:30.214Z,36.05
2023-03-12T01:17:56.748Z,23.45
2023-03-12T01:20:23.689Z,21.15
2023-03-12T01:22:51.426Z,20.40
2023-03-12T01:25:18.791Z,23.10
2023-03-12T01:27:45.307Z,25.55
2023-03-12T01:30:12.335Z,21.00
2023-03-12T01:32:38.867Z,20.63
2023-03-12T01:35:06.561Z,22.45
2023-03-12T01:37:33.807Z,27.65
2023-03-12T01:40:01.032Z,22.23
2023-03-12T01:42:27.696Z,23.63
2023-03-12T01:44:58.917Z,17.98
2023-03-12T01:47:26.289Z,20.27
2023-03-12T01:49:55.822Z,23.65
2023-03-12T01:52:27.562Z,20.85
2023-03-12T01:55:05.395Z,16.33
2023-03-12T01:57:38.323Z,22.27
2023-03-12T02:00:14.670Z,25.13
2023-03-12T02:02:44.255Z,18.00
2023-03-12T02:05:19.536Z,19.00
2023-03-12T02:07:47.123Z,16.40
2023-03-12T02:10:13.738Z,22.15
2023-03-12T02:12:40.388Z,15.75
2023-03-12T02:15:07.865Z,17.63
2023-03-12T02:17:36.265Z,19.88
2023-03-12T02:20:25.773Z,16.10
2023-03-12T02:23:05.763Z,17.65
2023-03-12T02:25:39.272Z,18.58
2023-03-12T02:28:09.288Z,21.02
2023-03-12T02:30:36.676Z,18.80
2023-03-12T02:33:07.557Z,17.17
2023-03-12T02:35:34.542Z,23.05
2023-03-12T02:38:01.152Z,16.23
2023-03-12T02:40:30.676Z,19.92
2023-03-12T02:42:57.544Z,17.52
2023-03-12T02:45:26.067Z,19.48
2023-03-12T02:47:52.721Z,17.27
2023-03-12T02:50:19.257Z,19.95
2023-03-12T02:52:45.752Z,17.40
2023-03-12T02:55:12.504Z,15.50
2023-03-12T02:57:39.320Z,18.00
2023-03-12T03:00:11.982Z,19.55
2023-03-12T03:02:39.842Z,17.63
2023-03-12T03:05:07.098Z,15.10
2023-03-12T03:07:33.904Z,21.48
2023-03-12T03:10:04.139Z,19.17
2023-03-12T03:12:33.969Z,20.80
2023-03-12T03:15:00.821Z,21.48
2023-03-12T03:17:27.616Z,26.10
2023-03-12T03:19:54.529Z,22.38
2023-03-12T03:22:22.205Z,17.52
2023-03-12T03:24:49.058Z,17.35
2023-03-12T03:27:15.649Z,18.67
2023-03-12T03:29:42.159Z,29.35
2023-03-12T03:32:08.711Z,24.55
2023-03-12T03:34:35.346Z,23.08
2023-03-12T03:37:02.070Z,25.05
2023-03-12T03:39:29.641Z,22.80
2023-03-12T03:41:56.439Z,22.88
2023-03-12T03:44:23.194Z,34.45
2023-03-12T03:46:50.115Z,29.55
2023-03-12T03:49:17.036Z,22.30
2023-03-12T03:51:43.760Z,24.38
2023-03-12T03:54:10.753Z,26.65
2023-03-12T03:56:37.367Z,19.45
2023-03-12T03:59:04.385Z,21.92
2023-03-12T04:01:31.507Z,25.15
2023-03-12T04:03:59.451Z,27.23
2023-03-12T04:06:26.067Z,29.42
2023-03-12T04:08:52.609Z,31.70
2023-03-12T04:11:21.392Z,44.38
2023-03-12T04:13:48.873Z,36.63
2023-03-12T04:16:17.157Z,37.67
2023-03-12T04:18:44.707Z,37.20
2023-03-12T04:21:13.256Z,32.05
2023-03-12T04:23:40.427Z,24.52
2023-03-12T04:26:07.761Z,27.00
2023-03-12T04:28:35.235Z,31.08
2023-03-12T04:31:04.349Z,36.10
2023-03-12T04:33:34.205Z,34.80
2023-03-12T04:36:01.227Z,51.10
2023-03-12T04:38:28.050Z,46.95
2023-03-12T04:41:08.662Z,49.08
2023-03-12T04:43:35.748Z,45.30
2023-03-12T04:46:02.906Z,29.27
2023-03-12T04:48:29.882Z,31.02
2023-03-12T04:50:56.425Z,32.50
2023-03-12T04:53:24.222Z,40.45
2023-03-12T04:55:51.288Z,40.08
2023-03-12T04:58:18.778Z,39.78
2023-03-12T05:00:45.567Z,36.72
2023-03-12T05:03:12.141Z,30.02
2023-03-12T05:05:38.676Z,23.77
2023-03-12T05:08:05.771Z,20.45
2023-03-12T05:10:32.776Z,25.73
2023-03-12T05:12:59.621Z,25.05
2023-03-12T05:15:26.571Z,18.15
2023-03-12T05:17:54.769Z,27.73
2023-03-12T05:20:21.642Z,28.02
2023-03-12T05:22:48.234Z,35.70
2023-03-12T05:25:14.921Z,37.97
2023-03-12T05:27:41.477Z,29.67
2023-03-12T05:30:09.808Z,25.33
2023-03-12T05:32:36.543Z,21.67
2023-03-12T05:35:03.588Z,23.70
2023-03-12T05:37:30.136Z,20.67
2023-03-12T05:39:56.819Z,24.50
2023-03-12T05:42:25.133Z,27.50
2023-03-12T05:44:52.367Z,24.02
2023-03-12T05:47:19.303Z,23.65
2023-03-12T05:49:46.142Z,25.08
2023-03-12T05:52:12.688Z,27.80
2023-03-12T05:54:39.404Z,15.35
2023-03-12T05:57:06.042Z,15.75
2023-03-12T05:59:32.752Z,10.77
2023-03-12T06:01:59.376Z,13.50
2023-03-12T06:04:26.190Z,14.98
2023-03-12T06:06:52.908Z,10.50
2023-03-12T06:09:19.549Z,10.70
2023-03-12T06:11:46.049Z,12.13
2023-03-12T06:14:13.128Z,13.27
2023-03-12T06:16:39.903Z,13.95
2023-03-12T06:19:07.673Z,13.82
2023-03-12T06:21:35.907Z,14.70
2023-03-12T06:24:03.114Z,15.43
2023-03-12T06:26:29.945Z,16.48
2023-03-12T06:28:56.764Z,14.85
2023-03-12T06:31:24.102Z,22.48
2023-03-12T06:33:51.594Z,16.20
2023-03-12T06:36:18.186Z,19.73
2023-03-12T06:38:44.997Z,20.42
2023-03-12T06:41:14.621Z,21.98
2023-03-12T06:43:42.176Z,15.35
2023-03-12T06:46:13.494Z,17.85
2023-03-12T06:48:41.562Z,20.02
2023-03-12T06:51:13.356Z,17.88
2023-03-12T06:53:42.218Z,16.25
2023-03-12T06:56:09.956Z,17.75
2023-03-12T06:58:36.606Z,17.63
2023-03-12T07:01:03.388Z,24.20
2023-03-12T07:03:29.881Z,25.48
2023-03-12T07:05:57.861Z,26.40
2023-03-12T07:08:25.756Z,28.48
2023-03-12T07:10:52.404Z,25.00
2023-03-12T07:13:18.998Z,26.90
2023-03-12T07:15:46.569Z,28.13
2023-03-12T07:18:13.913Z,22.38
2023-03-12T07:20:43.298Z,22.65
2023-03-12T07:23:11.108Z,21.38
2023-03-12T07:25:39.456Z,27.77
2023-03-12T07:28:06.987Z,25.77
2023-03-12T07:30:34.414Z,28.02
2023-03-12T07:33:06.211Z,26.33
2023-03-12T07:35:33.011Z,22.30
2023-03-12T07:38:01.560Z,35.92
2023-03-12T07:40:28.383Z,25.70
2023-03-12T07:42:54.907Z,27.85
2023-03-12T07:45:22.146Z,33.20
2023-03-12T07:47:49.693Z,42.03
2023-03-12T07:50:17.639Z,36.83
2023-03-12T07:52:45.175Z,37.20
2023-03-12T07:55:12.067Z,39.08
2023-03-12T07:57:39.058Z,45.30
2023-03-12T08:00:10.490Z,72.13
2023-03-12T08:02:37.314Z,103.32
2023-03-12T08:05:04.407Z,58.70
2023-03-12T08:07:33.028Z,60.40
2023-03-12T08:10:00.212Z,61.25
2023-03-12T08:12:27.752Z,68.63
2023-03-12T08:14:54.723Z,58.00
2023-03-12T08:17:22.957Z,91.55
2023-03-12T08:19:49.606Z,58.85
2023-03-12T08:22:16.209Z,58.28
2023-03-12T08:24:43.198Z,48.90
2023-03-12T08:27:12.117Z,38.60
2023-03-12T08:29:39.703Z,40.55
2023-03-12T08:32:07.449Z,42.55
2023-03-12T08:34:34.907Z,47.88
2023-03-12T08:37:02.895Z,36.08
2023-03-12T08:39:30.177Z,41.85
2023-03-12T08:41:56.737Z,64.88
2023-03-12T08:44:24.599Z,61.75
2023-03-12T08:46:52.212Z,46.55
2023-03-12T08:49:19.665Z,47.40
2023-03-12T08:51:46.361Z,45.63
2023-03-12T08:54:13.136Z,58.50
2023-03-12T08:56:43.193Z,43.08
2023-03-12T08:59:11.628Z,53.60
2023-03-12T09:01:38.426Z,43.08
2023-03-12T09:04:05.654Z,33.95
2023-03-12T09:06:34.245Z,34.45
2023-03-12T09:09:04.963Z,29.05
2023-03-12T09:11:36.529Z,26.98
2023-03-12T09:14:39.529Z,21.58
2023-03-12T09:16:50.261Z,30.98
2023-03-12T09:19:17.122Z,25.83
2023-03-12T09:21:43.696Z,35.60
2023-03-12T09:24:11.520Z,33.55
2023-03-12T09:26:38.124Z,34.13
2023-03-12T09:29:04.747Z,33.97
2023-03-12T09:31:31.781Z,27.20
2023-03-12T09:33:58.356Z,24.70
2023-03-12T09:36:24.879Z,29.13
2023-03-12T09:38:51.409Z,34.80
2023-03-12T09:41:25.233Z,27.65
2023-03-12T09:44:07.932Z,40.50
2023-03-12T09:46:44.582Z,40.40
2023-03-12T09:49:38.061Z,35.40
2023-03-12T09:52:23.420Z,43.17
2023-03-12T09:55:15.866Z,43.92
2023-03-12T10:00:16.260Z,36.45
2023-03-12T10:03:04.535Z,30.35
2023-03-12T10:05:55.870Z,33.70
2023-03-12T10:08:36.678Z,28.95
2023-03-12T10:11:21.299Z,32.10
2023-03-12T10:14:10.279Z,30.08
2023-03-12T10:17:11.017Z,32.30
2023-03-12T10:19:59.861Z,33.58
2023-03-12T10:22:53.236Z,32.03
2023-03-12T10:25:45.448Z,29.63
2023-03-12T10:28:32.248Z,33.30
2023-03-12T10:31:05.294Z,28.95
2023-03-12T10:33:44.758Z,29.17
2023-03-12T10:36:25.038Z,28.98
2023-03-12T10:38:51.710Z,35.10
2023-03-12T10:41:22.008Z,34.85
2023-03-12T10:43:48.608Z,37.10
2023-03-12T10:46:15.166Z,33.08
2023-03-12T10:48:43.231Z,36.67
2023-03-12T10:51:12.535Z,31.20
2023-03-12T10:53:48.249Z,35.05
2023-03-12T10:56:20.259Z,28.98
2023-03-12T10:58:51.222Z,29.90
2023-03-12T11:01:22.008Z,31.02
2023-03-12T11:03:51.093Z,34.10
2023-03-12T11:06:27.073Z,27.65
2023-03-12T11:09:16.669Z,34.42
2023-03-12T11:11:47.537Z,33.67
2023-03-12T11:29:27.247Z,32.63
2023-03-12T11:32:18.166Z,33.92
2023-03-12T11:34:49.682Z,36.92
2023-03-12T11:37:29.118Z,27.33
2023-03-12T11:39:55.612Z,38.95
2023-03-12T11:42:59.359Z,42.75
2023-03-12T11:46:03.609Z,38.10
2023-03-12T11:48:57.549Z,33.17
2023-03-12T11:51:52.276Z,32.15
2023-03-12T11:54:37.328Z,34.15
2023-03-12T11:57:42.428Z,34.65
2023-03-12T12:00:21.829Z,40.38
2023-03-12T12:03:25.355Z,36.92
2023-03-12T12:05:51.851Z,30.58
2023-03-12T12:08:39.840Z,37.65
2023-03-12T12:11:27.005Z,30.05
2023-03-12T12:14:36.828Z,30.30
2023-03-12T12:17:23.850Z,40.53
2023-03-12T12:20:00.944Z,31.88
2023-03-12T12:23:06.338Z,32.05
2023-03-12T12:25:57.923Z,30.30
2023-03-12T12:28:56.012Z,26.57
2023-03-12T12:31:25.580Z,36.38
2023-03-12T12:34:07.752Z,32.78
2023-03-12T12:39:09.961Z,26.10
2023-03-12T12:41:42.697Z,23.42
2023-03-12T12:44:16.723Z,23.45
2023-03-12T12:46:49.402Z,19.23
2023-03-12T12:49:38.026Z,21.38
2023-03-12T12:52:08.067Z,30.33
2023-03-12T12:54:43.670Z,24.05
2023-03-12T12:57:16.109Z,24.67
2023-03-12T12:59:52.214Z,23.40
2023-03-12T13:02:26.493Z,24.08
2023-03-12T13:04:57.210Z,22.48
2023-03-12T13:07:25.793Z,20.27
2023-03-12T13:09:56.214Z,21.25
2023-03-12T13:12:43.540Z,19.92
2023-03-12T13:15:28.152Z,25.80
2023-03-12T13:17:54.655Z,23.55
2023-03-12T13:20:24.509Z,26.55
2023-03-12T13:23:20.233Z,25.40
2023-03-12T13:26:08.680Z,22.05
2023-03-12T13:29:06.132Z,31.92
2023-03-12T13:31:39.769Z,27.38
2023-03-12T13:34:06.335Z,24.42
2023-03-12T13:36:37.561Z,27.55
2023-03-12T13:39:07.358Z,28.33
2023-03-12T13:41:38.028Z,27.33
2023-03-12T13:44:25.239Z,29.48
2023-03-12T13:47:02.309Z,25.75
2023-03-12T13:49:42.387Z,23.27
2023-03-12T13:52:27.087Z,24.95
2023-03-12T13:55:22.268Z,23.10
2023-03-12T13:57:58.687Z,22.98
2023-03-12T14:00:36.257Z,21.08
2023-03-12T14:03:18.248Z,25.50
2023-03-12T14:05:52.431Z,25.10
2023-03-12T14:08:31.038Z,33.92
2023-03-12T14:11:22.314Z,26.70
2023-03-12T14:13:48.837Z,27.17
2023-03-12T14:16:30.838Z,21.25
2023-03-12T14:18:57.562Z,25.27
2023-03-12T14:21:27.747Z,23.15
2023-03-12T14:23:57.611Z,28.13
2023-03-12T14:26:27.977Z,34.60
2023-03-12T14:29:02.660Z,23.08
2023-03-12T14:31:31.584Z,20.63
2023-03-12T14:34:20.695Z,22.60
2023-03-12T14:37:18.170Z,24.02
2023-03-12T14:39:57.630Z,29.13
2023-03-12T14:42:33.638Z,27.50
2023-03-12T14:45:04.184Z,26.35
2023-03-12T14:47:30.728Z,24.20
2023-03-12T14:49:58.592Z,26.98
2023-03-12T14:52:29.664Z,25.55
2023-03-12T14:55:08.350Z,21.83
2023-03-12T14:57:34.995Z,22.15
2023-03-12T15:00:01.720Z,23.85
2023-03-12T15:02:31.008Z,25.75
2023-03-12T15:05:00.301Z,19.50
2023-03-12T15:07:34.381Z,23.27
2023-03-12T15:10:03.146Z,30.67
2023-03-12T15:12:34.354Z,26.45
2023-03-12T15:15:09.548Z,22.17
2023-03-12T15:17:36.433Z,22.90
2023-03-12T15:20:09.518Z,20.40
2023-03-12T15:22:36.789Z,22.25
2023-03-12T15:25:22.221Z,22.23
2023-03-12T15:27:49.297Z,21.67
2023-03-12T15:30:25.690Z,30.13
2023-03-12T15:33:09.162Z,26.77
2023-03-12T15:35:58.453Z,23.48
2023-03-12T15:38:25.801Z,27.38
2023-03-12T15:40:56.152Z,23.77
2023-03-12T15:43:25.777Z,26.42
2023-03-12T15:46:06.807Z,24.80
2023-03-12T15:48:39.504Z,24.13
2023-03-12T15:51:29.278Z,21.45
2023-03-12T15:54:22.970Z,22.90
2023-03-12T15:56:49.576Z,29.70
2023-03-12T15:59:16.075Z,27.10
2023-03-12T16:01:49.915Z,18.55
2023-03-12T16:04:17.410Z,24.73
2023-03-12T16:06:48.253Z,25.77
2023-03-12T16:09:20.101Z,37.22
2023-03-12T16:11:47.342Z,25.38
2023-03-12T16:14:18.766Z,24.58
2023-03-12T16:16:46.631Z,25.80
2023-03-12T16:19:15.453Z,23.55
2023-03-12T16:21:44.108Z,24.92
2023-03-12T16:24:11.508Z,27.52
2023-03-12T16:26:52.050Z,30.05
2023-03-12T16:29:20.314Z,27.73
2023-03-12T16:31:54.275Z,23.02
2023-03-12T16:34:20.873Z,20.02
2023-03-12T16:36:47.403Z,24.95
2023-03-12T16:39:14.081Z,20.23
2023-03-12T16:41:40.711Z,23.77
2023-03-12T16:44:13.734Z,24.05
2023-03-12T16:46:40.338Z,23.88
2023-03-12T16:49:07.048Z,26.77
2023-03-12T16:51:33.611Z,17.83
2023-03-12T16:54:09.708Z,29.98
2023-03-12T16:56:41.347Z,25.02
2023-03-12T16:59:16.070Z,23.80
2023-03-12T17:01:42.733Z,27.05
2023-03-12T17:04:10.920Z,25.38
2023-03-12T17:06:40.107Z,32.58
2023-03-12T17:09:08.453Z,25.70
2023-03-12T17:11:37.799Z,22.88
2023-03-12T17:14:16.400Z,22.17
2023-03-12T17:16:42.948Z,24.08
2023-03-12T17:19:09.481Z,26.27
2023-03-12T17:21:37.538Z,23.25
2023-03-12T17:24:04.410Z,22.45
2023-03-12T17:26:31.135Z,24.25
2023-03-12T17:28:57.696Z,25.75
2023-03-12T17:31:24.777Z,27.73
2023-03-12T17:33:51.429Z,23.42
2023-03-12T17:36:17.977Z,21.38
2023-03-12T17:38:44.614Z,24.58
2023-03-12T17:41:25.452Z,22.90
2023-03-12T17:43:53.612Z,22.98
2023-03-12T17:46:20.310Z,20.27
2023-03-12T17:48:46.873Z,26.55
2023-03-12T17:51:13.497Z,23.85
2023-03-12T17:53:41.823Z,26.80
2023-03-12T17:56:08.708Z,18.20
2023-03-12T17:58:35.320Z,26.73
2023-03-12T18:01:01.860Z,30.15
2023-03-12T18:03:28.509Z,25.85
2023-03-12T18:05:55.332Z,18.85
2023-03-12T18:08:21.970Z,26.10
2023-03-12T18:10:49.165Z,27.63
2023-03-12T18:13:15.811Z,24.70
2023-03-12T18:15:42.417Z,22.63
2023-03-12T18:18:09.032Z,26.95
2023-03-12T18:20:39.713Z,22.30
2023-03-12T18:23:06.593Z,23.45
2023-03-12T18:25:33.166Z,26.13
2023-03-12T18:27:59.702Z,23.52
2023-03-12T18:30:28.265Z,24.98
2023-03-12T18:32:55.039Z,25.35
2023-03-12T18:35:22.736Z,18.70
2023-03-12T18:37:51.899Z,29.58
2023-03-12T18:40:18.517Z,16.95
2023-03-12T18:42:45.347Z,21.38
2023-03-12T18:45:12.250Z,26.58
2023-03-12T18:47:39.619Z,24.10
2023-03-12T18:50:10.159Z,29.50
2023-03-12T18:52:36.856Z,24.40
2023-03-12T18:55:04.450Z,25.65
2023-03-12T18:57:31.370Z,26.50
2023-03-12T18:59:59.356Z,22.35
2023-03-12T19:02:25.945Z,24.85
2023-03-12T19:04:54.845Z,30.15
2023-03-12T19:07:22.709Z,26.65
2023-03-12T19:09:49.380Z,25.48
2023-03-12T19:12:16.061Z,32.03
2023-03-12T19:14:42.548Z,25.17
2023-03-12T19:17:09.030Z,23.00
2023-03-12T19:19:35.762Z,29.65
2023-03-12T19:22:02.380Z,36.97
2023-03-12T19:24:28.927Z,29.60
2023-03-12T19:26:55.878Z,33.88
2023-03-12T19:29:22.498Z,29.35
2023-03-12T19:31:49.181Z,32.08
2023-03-12T19:34:17.286Z,26.52
2023-03-12T19:36:44.038Z,30.17
2023-03-12T19:39:20.578Z,31.92
2023-03-12T19:41:47.911Z,37.13
2023-03-12T19:44:14.506Z,35.28
2023-03-12T19:46:43.065Z,30.02
2023-03-12T19:49:09.787Z,25.02
2023-03-12T19:51:36.634Z,23.52
2023-03-12T19:54:03.199Z,32.08
2023-03-12T19:56:29.822Z,30.83
2023-03-12T19:58:56.388Z,30.77
2023-03-12T20:01:23.077Z,34.05
2023-03-12T20:03:49.704Z,26.15
2023-03-12T20:06:16.415Z,29.65
2023-03-12T20:08:44.572Z,26.17
2023-03-12T20:11:11.434Z,33.03
2023-03-12T20:13:40.605Z,37.55
2023-03-12T20:16:07.900Z,30.38
2023-03-12T20:18:34.646Z,33.65
2023-03-12T20:21:01.251Z,30.67
2023-03-12T20:23:27.806Z,35.67
2023-03-12T20:25:54.378Z,35.40
2023-03-12T20:28:21.090Z,32.97
2023-03-12T20:30:48.569Z,29.02
2023-03-12T20:33:15.272Z,39.22
2023-03-12T20:35:41.914Z,37.55
2023-03-12T20:38:08.631Z,31.33
2023-03-12T20:40:35.247Z,34.80
2023-03-12T20:43:05.086Z,32.85
2023-03-12T20:45:32.752Z,30.05
2023-03-12T20:47:59.806Z,32.65
2023-03-12T20:50:27.726Z,32.05
2023-03-12T20:52:54.536Z,23.90
2023-03-12T20:55:21.124Z,33.97
2023-03-12T20:57:47.823Z,24.35
2023-03-12T21:00:14.584Z,26.60
2023-03-12T21:02:41.195Z,32.30
2023-03-12T21:05:10.353Z,29.35
2023-03-12T21:07:36.984Z,22.20
2023-03-12T21:10:03.944Z,26.42
2023-03-12T21:12:30.576Z,26.15
2023-03-12T21:15:06.016Z,26.50
2023-03-12T21:17:34.293Z,22.45
2023-03-12T21:20:01.779Z,21.25
2023-03-12T21:22:30.500Z,23.40
2023-03-12T21:24:57.654Z,31.08
2023-03-12T21:27:24.879Z,21.55
2023-03-12T21:29:52.818Z,26.33
2023-03-12T21:32:20.566Z,27.27
2023-03-12T21:34:47.435Z,18.60
2023-03-12T21:37:14.209Z,25.73
2023-03-12T21:39:40.738Z,22.75
2023-03-12T21:42:07.429Z,26.95
2023-03-12T21:44:38.194Z,20.45
2023-03-12T21:47:05.513Z,18.90
2023-03-12T21:49:35.845Z,23.30
2023-03-12T21:52:03.648Z,24.15
2023-03-12T21:54:34.641Z,28.23
2023-03-12T21:57:02.919Z,21.10
2023-03-12T21:59:30.889Z,17.23
2023-03-12T22:01:58.316Z,20.73
2023-03-12T22:04:25.225Z,44.47
2023-03-12T22:06:51.989Z,30.65
2023-03-12T22:09:18.812Z,19.02
2023-03-12T22:11:45.354Z,20.45
2023-03-12T22:14:11.940Z,22.90
2023-03-12T22:16:38.512Z,20.20
2023-03-12T22:19:05.076Z,21.42
2023-03-12T22:21:31.652Z,22.75
2023-03-12T22:24:00.636Z,18.40
2023-03-12T22:26:27.711Z,22.85
2023-03-12T22:28:57.530Z,21.42
2023-03-12T22:31:26.625Z,23.40
2023-03-12T22:33:53.200Z,21.75
2023-03-12T22:36:21.401Z,25.02
2023-03-12T22:38:47.919Z,25.83
2023-03-12T22:41:25.769Z,27.77
2023-03-12T22:43:54.639Z,30.33
2023-03-12T22:46:23.457Z,23.08
2023-03-12T22:48:58.691Z,19.75
2023-03-12T22:51:26.634Z,25.88
2023-03-12T22:53:53.314Z,20.52
2023-03-12T22:56:19.958Z,20.25
2023-03-12T22:58:47.241Z,24.80
2023-03-12T23:01:16.228Z,22.08
2023-03-12T23:03:44.887Z,23.45
2023-03-12T23:06:30.167Z,16.63
2023-03-12T23:08:57.112Z,20.50
2023-03-12T23:11:25.586Z,23.13
2023-03-12T23:13:53.595Z,18.83
2023-03-12T23:16:23.346Z,24.02
2023-03-12T23:18:50.875Z,19.77
2023-03-12T23:21:22.959Z,16.02
2023-03-12T23:26:26.503Z,18.75
2023-03-12T23:28:57.837Z,18.58
2023-03-12T23:31:27.140Z,18.97
2023-03-12T23:33:54.609Z,20.05
2023-03-12T23:36:23.350Z,17.50
2023-03-12T23:38:50.268Z,18.42
2023-03-12T23:41:26.036Z,17.92
2023-03-12T23:43:52.787Z,18.52
2023-03-12T23:46:19.812Z,15.30
2023-03-12T23:48:46.984Z,14.52
2023-03-12T23:51:15.252Z,18.08
2023-03-12T23:53:44.156Z,18.27
2023-03-12T23:56:17.122Z,8.38
2023-03-12T23:58:44.437Z,14.52
